sensor_id;sensor_type;location;lat;lon;timestamp;P1;durP1;ratioP1;P2;durP2;ratioP2
51382;SDS011;37475;43.358;1.248;2022-08-25T00:04:25;4.75;;;1.80;;
51382;SDS011;37475;43.358;1.248;2022-08-25T00:06:53;3.38;;;1.80;;
51382;SDS011;37475;43.358;1.248;2022-08-25T00:09:20;3.53;;;1.70;;
51382;SDS011;37475;43.358;1.248;2022-08-25T00:11:50;3.55;;;1.50;;
51382;SDS011;37475;43.358;1.248;2022-08-25T00:14:22;3.78;;;1.60;;
51382;SDS011;37475;43.358;1.248;2022-08-25T00:16:53;4.57;;;1.88;;
51382;SDS011;37475;43.358;1.248;2022-08-25T00:19:21;3.53;;;1.60;;
51382;SDS011;37475;43.358;1.248;2022-08-25T00:21:58;2.85;;;1.50;;
51382;SDS011;37475;43.358;1.248;2022-08-25T00:24:24;3.58;;;1.70;;
51382;SDS011;37475;43.358;1.248;2022-08-25T00:26:52;3.25;;;1.95;;
51382;SDS011;37475;43.358;1.248;2022-08-25T00:29:21;4.55;;;1.70;;
51382;SDS011;37475;43.358;1.248;2022-08-25T00:31:50;3.88;;;1.75;;
51382;SDS011;37475;43.358;1.248;2022-08-25T00:34:18;3.85;;;1.70;;
51382;SDS011;37475;43.358;1.248;2022-08-25T00:36:49;3.90;;;1.65;;
51382;SDS011;37475;43.358;1.248;2022-08-25T00:39:16;4.90;;;1.95;;
51382;SDS011;37475;43.358;1.248;2022-08-25T00:41:45;3.22;;;1.73;;
51382;SDS011;37475;43.358;1.248;2022-08-25T00:44:13;4.03;;;1.83;;
51382;SDS011;37475;43.358;1.248;2022-08-25T00:46:47;3.45;;;1.73;;
51382;SDS011;37475;43.358;1.248;2022-08-25T00:49:18;2.72;;;1.58;;
51382;SDS011;37475;43.358;1.248;2022-08-25T00:51:56;4.80;;;1.85;;
51382;SDS011;37475;43.358;1.248;2022-08-25T00:54:29;3.47;;;1.55;;
51382;SDS011;37475;43.358;1.248;2022-08-25T00:57:03;5.07;;;1.77;;
51382;SDS011;37475;43.358;1.248;2022-08-25T00:59:31;4.05;;;1.80;;
51382;SDS011;37475;43.358;1.248;2022-08-25T01:01:58;4.38;;;1.80;;
51382;SDS011;37475;43.358;1.248;2022-08-25T01:04:25;3.65;;;1.50;;
51382;SDS011;37475;43.358;1.248;2022-08-25T01:06:51;3.72;;;1.60;;
51382;SDS011;37475;43.358;1.248;2022-08-25T01:09:17;3.70;;;1.60;;
51382;SDS011;37475;43.358;1.248;2022-08-25T01:11:44;4.57;;;1.73;;
51382;SDS011;37475;43.358;1.248;2022-08-25T01:14:12;4.45;;;1.73;;
51382;SDS011;37475;43.358;1.248;2022-08-25T01:16:42;6.38;;;1.90;;
51382;SDS011;37475;43.358;1.248;2022-08-25T01:19:09;4.50;;;1.95;;
51382;SDS011;37475;43.358;1.248;2022-08-25T01:21:39;6.95;;;2.00;;
51382;SDS011;37475;43.358;1.248;2022-08-25T01:24:27;3.83;;;2.05;;
51382;SDS011;37475;43.358;1.248;2022-08-25T01:27:05;5.20;;;1.98;;
51382;SDS011;37475;43.358;1.248;2022-08-25T01:29:32;3.97;;;1.85;;
51382;SDS011;37475;43.358;1.248;2022-08-25T01:32:04;2.80;;;1.70;;
51382;SDS011;37475;43.358;1.248;2022-08-25T01:34:35;5.20;;;1.95;;
51382;SDS011;37475;43.358;1.248;2022-08-25T01:37:05;4.25;;;1.88;;
51382;SDS011;37475;43.358;1.248;2022-08-25T01:39:32;5.70;;;1.80;;
51382;SDS011;37475;43.358;1.248;2022-08-25T01:44:37;3.47;;;1.70;;
51382;SDS011;37475;43.358;1.248;2022-08-25T01:47:06;4.65;;;1.55;;
51382;SDS011;37475;43.358;1.248;2022-08-25T01:49:32;4.25;;;1.60;;
51382;SDS011;37475;43.358;1.248;2022-08-25T01:52:13;4.18;;;1.58;;
51382;SDS011;37475;43.358;1.248;2022-08-25T01:54:41;4.05;;;1.38;;
51382;SDS011;37475;43.358;1.248;2022-08-25T01:57:07;5.65;;;1.33;;
51382;SDS011;37475;43.358;1.248;2022-08-25T01:59:33;5.85;;;1.50;;
51382;SDS011;37475;43.358;1.248;2022-08-25T02:01:59;9.10;;;1.55;;
51382;SDS011;37475;43.358;1.248;2022-08-25T02:04:25;6.25;;;1.92;;
51382;SDS011;37475;43.358;1.248;2022-08-25T02:06:55;4.13;;;1.77;;
51382;SDS011;37475;43.358;1.248;2022-08-25T02:09:23;8.10;;;2.40;;
51382;SDS011;37475;43.358;1.248;2022-08-25T02:11:49;9.30;;;3.10;;
51382;SDS011;37475;43.358;1.248;2022-08-25T02:14:15;5.53;;;3.00;;
51382;SDS011;37475;43.358;1.248;2022-08-25T02:16:45;9.27;;;2.83;;
51382;SDS011;37475;43.358;1.248;2022-08-25T02:19:15;8.48;;;3.00;;
51382;SDS011;37475;43.358;1.248;2022-08-25T02:21:42;5.28;;;3.17;;
51382;SDS011;37475;43.358;1.248;2022-08-25T02:24:08;8.20;;;3.45;;
51382;SDS011;37475;43.358;1.248;2022-08-25T02:26:35;8.10;;;3.70;;
51382;SDS011;37475;43.358;1.248;2022-08-25T02:29:02;8.02;;;3.53;;
51382;SDS011;37475;43.358;1.248;2022-08-25T02:31:31;7.88;;;3.65;;
51382;SDS011;37475;43.358;1.248;2022-08-25T02:33:57;9.70;;;3.95;;
51382;SDS011;37475;43.358;1.248;2022-08-25T02:36:24;11.88;;;4.80;;
51382;SDS011;37475;43.358;1.248;2022-08-25T02:38:50;6.55;;;4.03;;
51382;SDS011;37475;43.358;1.248;2022-08-25T02:41:20;11.95;;;4.60;;
51382;SDS011;37475;43.358;1.248;2022-08-25T02:43:49;8.20;;;3.97;;
51382;SDS011;37475;43.358;1.248;2022-08-25T02:46:16;10.32;;;4.47;;
51382;SDS011;37475;43.358;1.248;2022-08-25T02:48:44;8.18;;;4.65;;
51382;SDS011;37475;43.358;1.248;2022-08-25T02:51:11;9.38;;;5.05;;
51382;SDS011;37475;43.358;1.248;2022-08-25T02:53:38;9.32;;;4.85;;
51382;SDS011;37475;43.358;1.248;2022-08-25T02:56:06;10.40;;;4.80;;
51382;SDS011;37475;43.358;1.248;2022-08-25T02:58:34;8.57;;;4.78;;
51382;SDS011;37475;43.358;1.248;2022-08-25T03:01:02;9.50;;;4.80;;
51382;SDS011;37475;43.358;1.248;2022-08-25T03:03:29;9.68;;;4.70;;
51382;SDS011;37475;43.358;1.248;2022-08-25T03:05:54;6.53;;;4.10;;
51382;SDS011;37475;43.358;1.248;2022-08-25T03:08:21;11.52;;;5.70;;
51382;SDS011;37475;43.358;1.248;2022-08-25T03:10:48;10.73;;;5.18;;
51382;SDS011;37475;43.358;1.248;2022-08-25T03:13:14;10.50;;;5.10;;
51382;SDS011;37475;43.358;1.248;2022-08-25T03:15:41;9.35;;;5.43;;
51382;SDS011;37475;43.358;1.248;2022-08-25T03:18:07;13.85;;;6.13;;
51382;SDS011;37475;43.358;1.248;2022-08-25T03:20:35;11.75;;;6.18;;
51382;SDS011;37475;43.358;1.248;2022-08-25T03:23:02;11.20;;;5.72;;
51382;SDS011;37475;43.358;1.248;2022-08-25T03:25:30;10.95;;;5.70;;
51382;SDS011;37475;43.358;1.248;2022-08-25T03:28:14;15.68;;;7.10;;
51382;SDS011;37475;43.358;1.248;2022-08-25T03:30:40;17.17;;;7.13;;
51382;SDS011;37475;43.358;1.248;2022-08-25T03:33:07;11.43;;;6.78;;
51382;SDS011;37475;43.358;1.248;2022-08-25T03:35:33;12.13;;;7.38;;
51382;SDS011;37475;43.358;1.248;2022-08-25T03:37:59;13.77;;;7.10;;
51382;SDS011;37475;43.358;1.248;2022-08-25T03:40:25;12.93;;;6.97;;
51382;SDS011;37475;43.358;1.248;2022-08-25T03:42:52;12.68;;;6.65;;
51382;SDS011;37475;43.358;1.248;2022-08-25T03:45:21;12.65;;;7.38;;
51382;SDS011;37475;43.358;1.248;2022-08-25T03:47:48;13.43;;;7.55;;
51382;SDS011;37475;43.358;1.248;2022-08-25T03:50:16;13.00;;;7.15;;
51382;SDS011;37475;43.358;1.248;2022-08-25T03:52:43;14.18;;;7.18;;
51382;SDS011;37475;43.358;1.248;2022-08-25T03:55:15;15.00;;;8.38;;
51382;SDS011;37475;43.358;1.248;2022-08-25T03:57:41;12.70;;;7.80;;
51382;SDS011;37475;43.358;1.248;2022-08-25T04:00:07;13.77;;;8.25;;
51382;SDS011;37475;43.358;1.248;2022-08-25T04:02:36;15.63;;;8.57;;
51382;SDS011;37475;43.358;1.248;2022-08-25T04:05:03;13.23;;;8.10;;
51382;SDS011;37475;43.358;1.248;2022-08-25T04:07:30;14.02;;;8.48;;
51382;SDS011;37475;43.358;1.248;2022-08-25T04:09:56;13.35;;;8.80;;
51382;SDS011;37475;43.358;1.248;2022-08-25T04:12:22;18.52;;;9.45;;
51382;SDS011;37475;43.358;1.248;2022-08-25T04:14:48;12.45;;;8.32;;
51382;SDS011;37475;43.358;1.248;2022-08-25T04:17:14;13.63;;;8.57;;
51382;SDS011;37475;43.358;1.248;2022-08-25T04:19:41;16.90;;;8.95;;
51382;SDS011;37475;43.358;1.248;2022-08-25T04:22:07;14.40;;;9.10;;
51382;SDS011;37475;43.358;1.248;2022-08-25T04:24:33;14.05;;;8.93;;
51382;SDS011;37475;43.358;1.248;2022-08-25T04:26:58;13.98;;;9.00;;
51382;SDS011;37475;43.358;1.248;2022-08-25T04:29:24;14.57;;;9.02;;
51382;SDS011;37475;43.358;1.248;2022-08-25T04:31:51;14.88;;;9.40;;
51382;SDS011;37475;43.358;1.248;2022-08-25T04:34:19;15.57;;;8.98;;
51382;SDS011;37475;43.358;1.248;2022-08-25T04:36:47;13.45;;;8.63;;
51382;SDS011;37475;43.358;1.248;2022-08-25T04:39:17;15.48;;;10.52;;
51382;SDS011;37475;43.358;1.248;2022-08-25T04:41:45;16.13;;;9.55;;
51382;SDS011;37475;43.358;1.248;2022-08-25T04:44:12;14.70;;;8.23;;
51382;SDS011;37475;43.358;1.248;2022-08-25T04:46:38;16.90;;;8.43;;
51382;SDS011;37475;43.358;1.248;2022-08-25T04:49:04;14.15;;;9.02;;
51382;SDS011;37475;43.358;1.248;2022-08-25T04:51:31;13.10;;;8.63;;
51382;SDS011;37475;43.358;1.248;2022-08-25T04:54:02;14.70;;;9.23;;
51382;SDS011;37475;43.358;1.248;2022-08-25T04:56:31;15.02;;;9.02;;
51382;SDS011;37475;43.358;1.248;2022-08-25T04:59:00;16.05;;;9.90;;
51382;SDS011;37475;43.358;1.248;2022-08-25T05:01:30;14.95;;;9.10;;
51382;SDS011;37475;43.358;1.248;2022-08-25T05:03:59;17.02;;;9.75;;
51382;SDS011;37475;43.358;1.248;2022-08-25T05:06:28;14.57;;;9.48;;
51382;SDS011;37475;43.358;1.248;2022-08-25T05:08:55;17.25;;;9.52;;
51382;SDS011;37475;43.358;1.248;2022-08-25T05:11:22;17.40;;;9.65;;
51382;SDS011;37475;43.358;1.248;2022-08-25T05:13:51;15.80;;;8.55;;
51382;SDS011;37475;43.358;1.248;2022-08-25T05:16:20;14.85;;;8.63;;
51382;SDS011;37475;43.358;1.248;2022-08-25T05:18:47;17.25;;;9.82;;
51382;SDS011;37475;43.358;1.248;2022-08-25T05:21:18;18.60;;;9.57;;
51382;SDS011;37475;43.358;1.248;2022-08-25T05:26:14;14.50;;;8.82;;
51382;SDS011;37475;43.358;1.248;2022-08-25T05:28:44;16.23;;;7.47;;
51382;SDS011;37475;43.358;1.248;2022-08-25T05:31:11;16.05;;;7.82;;
51382;SDS011;37475;43.358;1.248;2022-08-25T05:33:39;14.88;;;8.63;;
51382;SDS011;37475;43.358;1.248;2022-08-25T05:36:07;16.80;;;8.68;;
51382;SDS011;37475;43.358;1.248;2022-08-25T05:38:35;19.15;;;9.77;;
51382;SDS011;37475;43.358;1.248;2022-08-25T05:41:02;17.73;;;10.07;;
51382;SDS011;37475;43.358;1.248;2022-08-25T05:43:34;18.38;;;9.57;;
51382;SDS011;37475;43.358;1.248;2022-08-25T05:46:02;18.50;;;9.80;;
51382;SDS011;37475;43.358;1.248;2022-08-25T05:48:28;16.17;;;9.27;;
51382;SDS011;37475;43.358;1.248;2022-08-25T05:50:58;16.17;;;9.38;;
51382;SDS011;37475;43.358;1.248;2022-08-25T05:53:26;18.42;;;9.98;;
51382;SDS011;37475;43.358;1.248;2022-08-25T05:55:54;16.85;;;9.68;;
51382;SDS011;37475;43.358;1.248;2022-08-25T05:58:22;15.93;;;9.27;;
51382;SDS011;37475;43.358;1.248;2022-08-25T06:00:50;18.83;;;9.70;;
51382;SDS011;37475;43.358;1.248;2022-08-25T06:03:16;16.85;;;9.40;;
51382;SDS011;37475;43.358;1.248;2022-08-25T06:05:42;14.15;;;10.27;;
51382;SDS011;37475;43.358;1.248;2022-08-25T06:08:08;15.35;;;9.98;;
51382;SDS011;37475;43.358;1.248;2022-08-25T06:10:34;18.05;;;9.48;;
51382;SDS011;37475;43.358;1.248;2022-08-25T06:13:01;16.13;;;9.10;;
51382;SDS011;37475;43.358;1.248;2022-08-25T06:15:27;17.67;;;10.32;;
51382;SDS011;37475;43.358;1.248;2022-08-25T06:17:54;13.63;;;8.88;;
51382;SDS011;37475;43.358;1.248;2022-08-25T06:20:25;18.27;;;10.60;;
51382;SDS011;37475;43.358;1.248;2022-08-25T06:22:55;15.70;;;9.50;;
51382;SDS011;37475;43.358;1.248;2022-08-25T06:25:22;16.90;;;10.05;;
51382;SDS011;37475;43.358;1.248;2022-08-25T06:27:50;16.08;;;9.27;;
51382;SDS011;37475;43.358;1.248;2022-08-25T06:30:18;14.50;;;9.07;;
51382;SDS011;37475;43.358;1.248;2022-08-25T06:32:46;19.33;;;9.70;;
51382;SDS011;37475;43.358;1.248;2022-08-25T06:35:14;19.17;;;11.85;;
51382;SDS011;37475;43.358;1.248;2022-08-25T06:37:43;19.77;;;11.70;;
51382;SDS011;37475;43.358;1.248;2022-08-25T06:40:11;19.00;;;10.30;;
51382;SDS011;37475;43.358;1.248;2022-08-25T06:42:38;19.65;;;10.70;;
51382;SDS011;37475;43.358;1.248;2022-08-25T06:45:04;17.00;;;10.60;;
51382;SDS011;37475;43.358;1.248;2022-08-25T06:47:31;17.60;;;10.30;;
51382;SDS011;37475;43.358;1.248;2022-08-25T06:49:57;17.95;;;10.70;;
51382;SDS011;37475;43.358;1.248;2022-08-25T06:52:23;16.73;;;10.38;;
51382;SDS011;37475;43.358;1.248;2022-08-25T06:54:49;16.20;;;9.48;;
51382;SDS011;37475;43.358;1.248;2022-08-25T06:57:15;14.57;;;9.07;;
51382;SDS011;37475;43.358;1.248;2022-08-25T06:59:41;14.93;;;8.93;;
51382;SDS011;37475;43.358;1.248;2022-08-25T07:02:07;15.07;;;9.35;;
51382;SDS011;37475;43.358;1.248;2022-08-25T07:04:33;15.13;;;9.70;;
51382;SDS011;37475;43.358;1.248;2022-08-25T07:07:00;15.85;;;9.00;;
51382;SDS011;37475;43.358;1.248;2022-08-25T07:09:26;16.27;;;8.48;;
51382;SDS011;37475;43.358;1.248;2022-08-25T07:11:52;14.10;;;9.05;;
51382;SDS011;37475;43.358;1.248;2022-08-25T07:14:19;15.00;;;9.10;;
51382;SDS011;37475;43.358;1.248;2022-08-25T07:16:46;13.15;;;7.60;;
51382;SDS011;37475;43.358;1.248;2022-08-25T07:19:12;14.98;;;8.38;;
51382;SDS011;37475;43.358;1.248;2022-08-25T07:21:39;16.73;;;8.65;;
51382;SDS011;37475;43.358;1.248;2022-08-25T07:24:10;17.08;;;8.00;;
51382;SDS011;37475;43.358;1.248;2022-08-25T07:26:38;13.75;;;8.48;;
51382;SDS011;37475;43.358;1.248;2022-08-25T07:29:15;13.20;;;7.70;;
51382;SDS011;37475;43.358;1.248;2022-08-25T07:31:47;12.52;;;7.40;;
51382;SDS011;37475;43.358;1.248;2022-08-25T07:34:14;15.02;;;8.30;;
51382;SDS011;37475;43.358;1.248;2022-08-25T07:36:59;13.65;;;7.15;;
51382;SDS011;37475;43.358;1.248;2022-08-25T07:39:28;13.75;;;7.80;;
51382;SDS011;37475;43.358;1.248;2022-08-25T07:41:55;14.25;;;7.82;;
51382;SDS011;37475;43.358;1.248;2022-08-25T07:44:21;14.93;;;8.40;;
51382;SDS011;37475;43.358;1.248;2022-08-25T07:46:49;14.10;;;7.97;;
51382;SDS011;37475;43.358;1.248;2022-08-25T07:49:16;15.55;;;8.73;;
51382;SDS011;37475;43.358;1.248;2022-08-25T07:51:43;14.45;;;8.57;;
51382;SDS011;37475;43.358;1.248;2022-08-25T07:54:10;19.08;;;8.63;;
51382;SDS011;37475;43.358;1.248;2022-08-25T07:56:36;11.75;;;8.10;;
51382;SDS011;37475;43.358;1.248;2022-08-25T07:59:03;10.95;;;7.18;;
51382;SDS011;37475;43.358;1.248;2022-08-25T08:01:29;12.18;;;7.75;;
51382;SDS011;37475;43.358;1.248;2022-08-25T08:03:54;12.52;;;8.02;;
51382;SDS011;37475;43.358;1.248;2022-08-25T08:06:21;14.57;;;7.40;;
51382;SDS011;37475;43.358;1.248;2022-08-25T08:08:50;11.73;;;6.93;;
51382;SDS011;37475;43.358;1.248;2022-08-25T08:11:20;14.40;;;7.55;;
51382;SDS011;37475;43.358;1.248;2022-08-25T08:16:19;10.52;;;7.00;;
51382;SDS011;37475;43.358;1.248;2022-08-25T08:18:47;11.77;;;7.03;;
51382;SDS011;37475;43.358;1.248;2022-08-25T08:21:14;12.68;;;7.85;;
51382;SDS011;37475;43.358;1.248;2022-08-25T08:23:47;13.32;;;8.27;;
51382;SDS011;37475;43.358;1.248;2022-08-25T08:26:15;14.35;;;9.35;;
51382;SDS011;37475;43.358;1.248;2022-08-25T08:28:41;19.23;;;10.70;;
51382;SDS011;37475;43.358;1.248;2022-08-25T08:31:07;16.38;;;10.82;;
51382;SDS011;37475;43.358;1.248;2022-08-25T08:33:33;17.40;;;11.23;;
51382;SDS011;37475;43.358;1.248;2022-08-25T08:36:09;19.58;;;11.90;;
51382;SDS011;37475;43.358;1.248;2022-08-25T08:38:37;20.00;;;11.10;;
51382;SDS011;37475;43.358;1.248;2022-08-25T08:47:12;21.00;;;10.63;;
51382;SDS011;37475;43.358;1.248;2022-08-25T08:55:38;19.38;;;9.55;;
51382;SDS011;37475;43.358;1.248;2022-08-25T09:01:12;13.82;;;10.07;;
51382;SDS011;37475;43.358;1.248;2022-08-25T09:06:45;14.93;;;9.75;;
51382;SDS011;37475;43.358;1.248;2022-08-25T09:09:23;17.27;;;9.25;;
51382;SDS011;37475;43.358;1.248;2022-08-25T09:12:06;13.55;;;8.52;;
51382;SDS011;37475;43.358;1.248;2022-08-25T09:18:04;11.93;;;8.57;;
51382;SDS011;37475;43.358;1.248;2022-08-25T09:20:49;17.60;;;9.23;;
51382;SDS011;37475;43.358;1.248;2022-08-25T09:23:46;13.38;;;8.93;;
51382;SDS011;37475;43.358;1.248;2022-08-25T09:29:26;11.60;;;7.88;;
51382;SDS011;37475;43.358;1.248;2022-08-25T09:32:11;17.23;;;8.27;;
51382;SDS011;37475;43.358;1.248;2022-08-25T09:34:38;12.80;;;7.05;;
51382;SDS011;37475;43.358;1.248;2022-08-25T09:37:04;11.43;;;7.57;;
51382;SDS011;37475;43.358;1.248;2022-08-25T09:39:29;14.43;;;7.63;;
51382;SDS011;37475;43.358;1.248;2022-08-25T09:41:56;12.15;;;7.38;;
51382;SDS011;37475;43.358;1.248;2022-08-25T09:44:31;13.70;;;7.35;;
51382;SDS011;37475;43.358;1.248;2022-08-25T09:54:53;9.88;;;6.32;;
51382;SDS011;37475;43.358;1.248;2022-08-25T10:00:08;12.73;;;6.30;;
51382;SDS011;37475;43.358;1.248;2022-08-25T10:02:43;8.77;;;5.90;;
51382;SDS011;37475;43.358;1.248;2022-08-25T10:05:25;13.33;;;5.50;;
51382;SDS011;37475;43.358;1.248;2022-08-25T10:07:56;9.32;;;4.82;;
51382;SDS011;37475;43.358;1.248;2022-08-25T10:10:32;9.25;;;5.25;;
51382;SDS011;37475;43.358;1.248;2022-08-25T10:13:03;7.57;;;4.15;;
51382;SDS011;37475;43.358;1.248;2022-08-25T10:15:43;9.23;;;4.20;;
51382;SDS011;37475;43.358;1.248;2022-08-25T10:18:21;7.85;;;4.10;;
51382;SDS011;37475;43.358;1.248;2022-08-25T10:21:10;8.70;;;4.68;;
51382;SDS011;37475;43.358;1.248;2022-08-25T10:23:46;10.57;;;4.45;;
51382;SDS011;37475;43.358;1.248;2022-08-25T10:33:01;9.38;;;4.35;;
51382;SDS011;37475;43.358;1.248;2022-08-25T10:44:33;10.05;;;3.53;;
51382;SDS011;37475;43.358;1.248;2022-08-25T10:51:33;8.20;;;3.40;;
51382;SDS011;37475;43.358;1.248;2022-08-25T10:59:59;9.15;;;3.63;;
51382;SDS011;37475;43.358;1.248;2022-08-25T11:02:51;7.13;;;3.80;;
51382;SDS011;37475;43.358;1.248;2022-08-25T11:13:52;10.90;;;3.72;;
51382;SDS011;37475;43.358;1.248;2022-08-25T11:22:05;9.93;;;3.38;;
51382;SDS011;37475;43.358;1.248;2022-08-25T11:30:56;10.80;;;3.60;;
51382;SDS011;37475;43.358;1.248;2022-08-25T11:33:24;15.00;;;3.80;;
51382;SDS011;37475;43.358;1.248;2022-08-25T11:36:02;10.02;;;3.58;;
51382;SDS011;37475;43.358;1.248;2022-08-25T11:48:20;10.52;;;3.88;;
51382;SDS011;37475;43.358;1.248;2022-08-25T11:51:06;10.73;;;3.67;;
51382;SDS011;37475;43.358;1.248;2022-08-25T11:56:51;10.32;;;3.03;;
51382;SDS011;37475;43.358;1.248;2022-08-25T12:13:38;9.73;;;2.72;;
51382;SDS011;37475;43.358;1.248;2022-08-25T12:16:30;7.05;;;2.65;;
51382;SDS011;37475;43.358;1.248;2022-08-25T12:24:47;7.45;;;2.25;;
51382;SDS011;37475;43.358;1.248;2022-08-25T12:30:57;9.27;;;2.28;;
51382;SDS011;37475;43.358;1.248;2022-08-25T12:33:42;6.82;;;2.38;;
51382;SDS011;37475;43.358;1.248;2022-08-25T12:36:37;9.40;;;2.28;;
51382;SDS011;37475;43.358;1.248;2022-08-25T12:39:07;9.75;;;2.17;;
51382;SDS011;37475;43.358;1.248;2022-08-25T12:41:55;6.72;;;2.20;;
51382;SDS011;37475;43.358;1.248;2022-08-25T12:49:44;7.30;;;2.30;;
51382;SDS011;37475;43.358;1.248;2022-08-25T12:52:15;8.57;;;2.10;;
51382;SDS011;37475;43.358;1.248;2022-08-25T12:54:49;12.10;;;2.22;;
51382;SDS011;37475;43.358;1.248;2022-08-25T12:57:37;9.50;;;2.22;;
51382;SDS011;37475;43.358;1.248;2022-08-25T13:11:36;10.38;;;2.38;;
51382;SDS011;37475;43.358;1.248;2022-08-25T13:17:09;6.47;;;2.00;;
51382;SDS011;37475;43.358;1.248;2022-08-25T13:19:36;6.93;;;2.03;;
51382;SDS011;37475;43.358;1.248;2022-08-25T13:22:12;8.32;;;2.50;;
51382;SDS011;37475;43.358;1.248;2022-08-25T13:24:42;8.70;;;2.10;;
51382;SDS011;37475;43.358;1.248;2022-08-25T13:27:17;6.97;;;2.53;;
51382;SDS011;37475;43.358;1.248;2022-08-25T13:29:50;6.78;;;1.95;;
51382;SDS011;37475;43.358;1.248;2022-08-25T13:32:27;5.40;;;2.00;;
51382;SDS011;37475;43.358;1.248;2022-08-25T13:37:47;6.45;;;2.30;;
51382;SDS011;37475;43.358;1.248;2022-08-25T13:40:22;8.43;;;2.15;;
51382;SDS011;37475;43.358;1.248;2022-08-25T13:42:57;6.78;;;2.40;;
51382;SDS011;37475;43.358;1.248;2022-08-25T13:45:28;6.40;;;2.22;;
51382;SDS011;37475;43.358;1.248;2022-08-25T13:47:58;6.70;;;2.22;;
51382;SDS011;37475;43.358;1.248;2022-08-25T13:52:52;6.63;;;1.98;;
51382;SDS011;37475;43.358;1.248;2022-08-25T13:55:20;9.45;;;2.30;;
51382;SDS011;37475;43.358;1.248;2022-08-25T13:57:52;5.55;;;2.10;;
51382;SDS011;37475;43.358;1.248;2022-08-25T14:00:25;8.20;;;2.28;;
51382;SDS011;37475;43.358;1.248;2022-08-25T14:03:16;5.78;;;1.90;;
51382;SDS011;37475;43.358;1.248;2022-08-25T14:08:44;9.45;;;2.13;;
51382;SDS011;37475;43.358;1.248;2022-08-25T14:11:26;5.65;;;1.83;;
51382;SDS011;37475;43.358;1.248;2022-08-25T14:16:39;7.03;;;2.10;;
51382;SDS011;37475;43.358;1.248;2022-08-25T14:19:17;5.32;;;1.85;;
51382;SDS011;37475;43.358;1.248;2022-08-25T14:21:47;6.10;;;2.05;;
51382;SDS011;37475;43.358;1.248;2022-08-25T14:24:18;5.68;;;2.10;;
51382;SDS011;37475;43.358;1.248;2022-08-25T14:26:47;6.65;;;2.25;;
51382;SDS011;37475;43.358;1.248;2022-08-25T14:29:14;6.25;;;2.10;;
51382;SDS011;37475;43.358;1.248;2022-08-25T14:31:41;6.40;;;2.10;;
51382;SDS011;37475;43.358;1.248;2022-08-25T14:34:11;7.25;;;2.28;;
51382;SDS011;37475;43.358;1.248;2022-08-25T14:36:41;9.40;;;2.60;;
51382;SDS011;37475;43.358;1.248;2022-08-25T14:39:07;3.72;;;1.75;;
51382;SDS011;37475;43.358;1.248;2022-08-25T14:41:35;4.78;;;2.00;;
51382;SDS011;37475;43.358;1.248;2022-08-25T14:44:05;4.68;;;1.80;;
51382;SDS011;37475;43.358;1.248;2022-08-25T14:46:40;7.28;;;2.30;;
51382;SDS011;37475;43.358;1.248;2022-08-25T14:49:16;4.90;;;1.73;;
51382;SDS011;37475;43.358;1.248;2022-08-25T14:51:46;7.07;;;2.13;;
51382;SDS011;37475;43.358;1.248;2022-08-25T14:54:13;4.18;;;1.85;;
51382;SDS011;37475;43.358;1.248;2022-08-25T14:56:42;4.45;;;2.00;;
51382;SDS011;37475;43.358;1.248;2022-08-25T14:59:12;4.93;;;1.98;;
51382;SDS011;37475;43.358;1.248;2022-08-25T15:01:38;5.93;;;1.60;;
51382;SDS011;37475;43.358;1.248;2022-08-25T15:04:09;4.97;;;2.05;;
51382;SDS011;37475;43.358;1.248;2022-08-25T15:06:41;4.72;;;1.75;;
51382;SDS011;37475;43.358;1.248;2022-08-25T15:09:09;5.90;;;1.55;;
51382;SDS011;37475;43.358;1.248;2022-08-25T15:11:44;6.18;;;1.60;;
51382;SDS011;37475;43.358;1.248;2022-08-25T15:14:13;5.15;;;1.65;;
51382;SDS011;37475;43.358;1.248;2022-08-25T15:16:42;3.83;;;1.60;;
51382;SDS011;37475;43.358;1.248;2022-08-25T15:19:20;5.40;;;1.67;;
51382;SDS011;37475;43.358;1.248;2022-08-25T15:21:51;5.55;;;1.80;;
51382;SDS011;37475;43.358;1.248;2022-08-25T15:24:17;4.63;;;1.67;;
51382;SDS011;37475;43.358;1.248;2022-08-25T15:26:53;5.90;;;1.90;;
51382;SDS011;37475;43.358;1.248;2022-08-25T15:29:27;4.60;;;1.77;;
51382;SDS011;37475;43.358;1.248;2022-08-25T15:31:55;4.63;;;1.60;;
51382;SDS011;37475;43.358;1.248;2022-08-25T15:34:22;6.13;;;1.70;;
51382;SDS011;37475;43.358;1.248;2022-08-25T15:36:48;6.07;;;1.90;;
51382;SDS011;37475;43.358;1.248;2022-08-25T15:39:14;5.65;;;1.80;;
51382;SDS011;37475;43.358;1.248;2022-08-25T15:41:40;4.85;;;1.77;;
51382;SDS011;37475;43.358;1.248;2022-08-25T15:44:06;5.00;;;1.67;;
51382;SDS011;37475;43.358;1.248;2022-08-25T15:46:34;5.22;;;1.75;;
51382;SDS011;37475;43.358;1.248;2022-08-25T15:49:02;5.65;;;1.92;;
51382;SDS011;37475;43.358;1.248;2022-08-25T15:51:29;4.50;;;2.10;;
51382;SDS011;37475;43.358;1.248;2022-08-25T15:53:55;4.70;;;1.75;;
51382;SDS011;37475;43.358;1.248;2022-08-25T15:56:22;6.28;;;2.30;;
51382;SDS011;37475;43.358;1.248;2022-08-25T15:58:49;5.32;;;2.10;;
51382;SDS011;37475;43.358;1.248;2022-08-25T16:01:16;4.65;;;1.75;;
51382;SDS011;37475;43.358;1.248;2022-08-25T16:03:46;8.00;;;2.17;;
51382;SDS011;37475;43.358;1.248;2022-08-25T16:06:12;5.07;;;1.70;;
51382;SDS011;37475;43.358;1.248;2022-08-25T16:08:38;4.47;;;1.65;;
51382;SDS011;37475;43.358;1.248;2022-08-25T16:11:05;5.13;;;1.65;;
51382;SDS011;37475;43.358;1.248;2022-08-25T16:13:41;3.50;;;1.67;;
51382;SDS011;37475;43.358;1.248;2022-08-25T16:16:07;5.10;;;1.88;;
51382;SDS011;37475;43.358;1.248;2022-08-25T16:18:33;5.85;;;2.00;;
51382;SDS011;37475;43.358;1.248;2022-08-25T16:20:59;6.15;;;1.90;;
51382;SDS011;37475;43.358;1.248;2022-08-25T16:23:25;6.45;;;2.30;;
51382;SDS011;37475;43.358;1.248;2022-08-25T16:25:51;6.25;;;1.95;;
51382;SDS011;37475;43.358;1.248;2022-08-25T16:28:16;4.63;;;2.00;;
51382;SDS011;37475;43.358;1.248;2022-08-25T16:30:43;6.38;;;2.10;;
51382;SDS011;37475;43.358;1.248;2022-08-25T16:33:14;9.68;;;2.25;;
51382;SDS011;37475;43.358;1.248;2022-08-25T16:35:41;5.95;;;1.92;;
51382;SDS011;37475;43.358;1.248;2022-08-25T16:38:08;8.10;;;2.30;;
51382;SDS011;37475;43.358;1.248;2022-08-25T16:40:37;4.82;;;2.13;;
51382;SDS011;37475;43.358;1.248;2022-08-25T16:43:07;4.70;;;1.90;;
51382;SDS011;37475;43.358;1.248;2022-08-25T16:45:34;5.93;;;1.95;;
51382;SDS011;37475;43.358;1.248;2022-08-25T16:48:00;5.70;;;2.22;;
51382;SDS011;37475;43.358;1.248;2022-08-25T16:50:28;9.45;;;2.17;;
51382;SDS011;37475;43.358;1.248;2022-08-25T16:52:55;5.35;;;1.90;;
51382;SDS011;37475;43.358;1.248;2022-08-25T16:55:41;5.90;;;2.50;;
51382;SDS011;37475;43.358;1.248;2022-08-25T16:58:07;6.05;;;2.28;;
51382;SDS011;37475;43.358;1.248;2022-08-25T17:00:35;6.68;;;2.05;;
51382;SDS011;37475;43.358;1.248;2022-08-25T17:03:02;5.68;;;2.00;;
51382;SDS011;37475;43.358;1.248;2022-08-25T17:05:30;4.30;;;1.90;;
51382;SDS011;37475;43.358;1.248;2022-08-25T17:07:57;5.72;;;2.15;;
51382;SDS011;37475;43.358;1.248;2022-08-25T17:10:43;6.53;;;2.15;;
51382;SDS011;37475;43.358;1.248;2022-08-25T17:13:09;4.60;;;2.00;;
51382;SDS011;37475;43.358;1.248;2022-08-25T17:15:40;5.32;;;2.22;;
51382;SDS011;37475;43.358;1.248;2022-08-25T17:18:08;6.97;;;1.90;;
51382;SDS011;37475;43.358;1.248;2022-08-25T17:20:35;6.63;;;2.30;;
51382;SDS011;37475;43.358;1.248;2022-08-25T17:23:02;4.72;;;2.05;;
51382;SDS011;37475;43.358;1.248;2022-08-25T17:25:32;8.20;;;2.10;;
51382;SDS011;37475;43.358;1.248;2022-08-25T17:28:00;4.90;;;2.08;;
51382;SDS011;37475;43.358;1.248;2022-08-25T17:30:26;6.22;;;2.70;;
51382;SDS011;37475;43.358;1.248;2022-08-25T17:32:53;5.82;;;2.13;;
51382;SDS011;37475;43.358;1.248;2022-08-25T17:35:18;6.25;;;2.30;;